Alpine Link — V7SZ7 — position and weather

sailwx.info

Track history (hours):
 
Tides and Currents Weather Stations Pressure Air Temp Water Temp Dewpoint Dewpoint Depression Visibility Wind Speed Wind Dir Waves Ship Positions

Alpine Link

Last reported at 2014-Nov-23 06:07 UTC. Time now 2014-Nov-24 04:03 UTC.
Position N 40°53' E 028°37'.

Length 183 m; draft 10.3 m.

Type: Tanker. MMSI: 538003758.

Date/timePositionNaut miles runAvg speedWind from/ knotsBaromVisibWave heightAir tempDewpointWater temp
2014-Nov-23 06:07N 40°53' E 028°37'813.2
2014-Nov-23 05:31N 40°55' E 028°47'5 5.0
2014-Nov-23 04:32N 40°56' E 028°54'1 1.3
2014-Nov-23 03:33N 40°57' E 028°55'3 2.8
2014-Nov-23 02:33N 40°58' E 028°59'25 1.2
2014-Nov-22 05:33N 41°20' E 029°14'2 1.9
2014-Nov-22 04:31N 41°22' E 029°13'275 9.8
2014-Nov-21 00:23N 43°55' E 034°24'1513.6
2014-Nov-20 23:15N 44°04' E 034°41'1113.6
2014-Nov-20 22:26N 44°13' E 034°50'1213.7
2014-Nov-20 21:33N 44°20' E 035°03'1313.3
2014-Nov-20 20:33N 44°28' E 035°19'5 3.9
2014-Nov-20 19:13N 44°31' E 035°25'1 1.6
2014-Nov-20 18:25N 44°30' E 035°27'2 1.7
2014-Nov-20 17:32N 44°30' E 035°29'2 1.7
2014-Nov-20 16:34N 44°30' E 035°31'2 1.7
2014-Nov-20 15:33N 44°29' E 035°34'2 1.7
2014-Nov-20 14:29N 44°29' E 035°36'2 1.6
2014-Nov-20 13:30N 44°29' E 035°39'1 1.4
2014-Nov-20 12:33N 44°29' E 035°40'2 1.3
2014-Nov-20 11:25N 44°29' E 035°43'1 1.2
2014-Nov-20 10:33N 44°29' E 035°44'0 0.1
2014-Nov-20 09:30N 44°29' E 035°44'1010.5
2014-Nov-20 08:32N 44°25' E 035°31'1312.8
2014-Nov-20 07:31N 44°31' E 035°48'  
2014-Nov-15 11:27N 44°49' E 036°37'0 0.0
2014-Nov-15 10:12N 44°49' E 036°37'0 0.0
2014-Nov-15 08:24N 44°49' E 036°37'0 0.0
2014-Nov-15 07:21N 44°49' E 036°37'0 0.0
2014-Nov-15 06:27N 44°49' E 036°37'0 0.0
2014-Nov-15 05:33N 44°49' E 036°37'0 0.0
2014-Nov-15 04:33N 44°49' E 036°37'0 0.0
2014-Nov-14 20:24N 44°49' E 036°37'0 0.0
2014-Nov-14 10:30N 44°48' E 036°37'0 0.0
2014-Nov-14 07:30N 44°48' E 036°37'0 0.0
2014-Nov-14 06:33N 44°48' E 036°37'0 0.0
2014-Nov-14 05:33N 44°48' E 036°37'0 0.0
2014-Nov-14 04:33N 44°48' E 036°37'0 0.0
2014-Nov-14 03:33N 44°48' E 036°37'0 0.0
2014-Nov-14 02:33N 44°49' E 036°37'0 0.0
2014-Nov-14 01:33N 44°49' E 036°37'0 0.0
2014-Nov-14 00:30N 44°48' E 036°37'0 0.0
2014-Nov-13 23:33N 44°48' E 036°37'0 0.0
2014-Nov-13 22:33N 44°48' E 036°37'  
Track history (hours):
 
Tides and Currents Weather Stations Pressure Air Temp Water Temp Dewpoint Dewpoint Depression Visibility Wind Speed Wind Dir Waves Ship Positions

Alpine Link

Last reported at 2014-Nov-23 06:07 UTC. Time now 2014-Nov-24 04:03 UTC.
Position N 40°53' E 028°37'.

Length 183 m; draft 10.3 m.

Type: Tanker. MMSI: 538003758.

Date/timePositionNaut miles runAvg speedWind from/ knotsBaromVisibWave heightAir tempDewpointWater temp
2014-Nov-23 06:07N 40°53' E 028°37'813.2
2014-Nov-23 05:31N 40°55' E 028°47'5 5.0
2014-Nov-23 04:32N 40°56' E 028°54'1 1.3
2014-Nov-23 03:33N 40°57' E 028°55'3 2.8
2014-Nov-23 02:33N 40°58' E 028°59'25 1.2
2014-Nov-22 05:33N 41°20' E 029°14'2 1.9
2014-Nov-22 04:31N 41°22' E 029°13'275 9.8
2014-Nov-21 00:23N 43°55' E 034°24'1513.6
2014-Nov-20 23:15N 44°04' E 034°41'1113.6
2014-Nov-20 22:26N 44°13' E 034°50'1213.7
2014-Nov-20 21:33N 44°20' E 035°03'1313.3
2014-Nov-20 20:33N 44°28' E 035°19'5 3.9
2014-Nov-20 19:13N 44°31' E 035°25'1 1.6
2014-Nov-20 18:25N 44°30' E 035°27'2 1.7
2014-Nov-20 17:32N 44°30' E 035°29'2 1.7
2014-Nov-20 16:34N 44°30' E 035°31'2 1.7
2014-Nov-20 15:33N 44°29' E 035°34'2 1.7
2014-Nov-20 14:29N 44°29' E 035°36'2 1.6
2014-Nov-20 13:30N 44°29' E 035°39'1 1.4
2014-Nov-20 12:33N 44°29' E 035°40'2 1.3
2014-Nov-20 11:25N 44°29' E 035°43'1 1.2
2014-Nov-20 10:33N 44°29' E 035°44'0 0.1
2014-Nov-20 09:30N 44°29' E 035°44'1010.5
2014-Nov-20 08:32N 44°25' E 035°31'1312.8
2014-Nov-20 07:31N 44°31' E 035°48'  
2014-Nov-15 11:27N 44°49' E 036°37'0 0.0
2014-Nov-15 10:12N 44°49' E 036°37'0 0.0
2014-Nov-15 08:24N 44°49' E 036°37'0 0.0
2014-Nov-15 07:21N 44°49' E 036°37'0 0.0
2014-Nov-15 06:27N 44°49' E 036°37'0 0.0
2014-Nov-15 05:33N 44°49' E 036°37'0 0.0
2014-Nov-15 04:33N 44°49' E 036°37'0 0.0
2014-Nov-14 20:24N 44°49' E 036°37'0 0.0
2014-Nov-14 10:30N 44°48' E 036°37'0 0.0
2014-Nov-14 07:30N 44°48' E 036°37'0 0.0
2014-Nov-14 06:33N 44°48' E 036°37'0 0.0
2014-Nov-14 05:33N 44°48' E 036°37'0 0.0
2014-Nov-14 04:33N 44°48' E 036°37'0 0.0
2014-Nov-14 03:33N 44°48' E 036°37'0 0.0
2014-Nov-14 02:33N 44°49' E 036°37'0 0.0
2014-Nov-14 01:33N 44°49' E 036°37'0 0.0
2014-Nov-14 00:30N 44°48' E 036°37'0 0.0
2014-Nov-13 23:33N 44°48' E 036°37'0 0.0
2014-Nov-13 22:33N 44°48' E 036°37'  

Dump ship's entire track history